Time;durP1;ratioP1;P1;durP2;ratioP2;P2;SDS_P1;SDS_P2;PMS_P1;PMS_P2;Temp;Humidity;BMP_temperature;BMP_pressure;BME280_temperature;BME280_humidity;BME280_pressure;Samples;Min_cycle;Max_cycle;Signal;HPM_P1;HPM_P2
2022/06/11 04:02:23;;;;;;;15.63;5.55;;;14.70;99.90;;;;;;6244089;22;20524;-81
2022/06/11 04:04:49;;;;;;;18.88;5.47;;;14.70;99.90;;;;;;6194753;23;20020;-81
2022/06/11 04:07:14;;;;;;;16.98;5.03;;;14.70;99.90;;;;;;6245832;23;20446;-83
2022/06/11 04:09:42;;;;;;;16.98;6.47;;;14.70;99.90;;;;;;6220332;23;20012;-84
2022/06/11 04:12:12;;;;;;;17.38;4.97;;;14.70;99.90;;;;;;6271918;22;20039;-83
2022/06/11 04:14:39;;;;;;;18.15;5.05;;;14.70;99.90;;;;;;6277798;22;20008;-81
2022/06/11 04:17:08;;;;;;;17.40;5.03;;;14.70;99.90;;;;;;6245214;23;20012;-83
2022/06/11 04:19:37;;;;;;;16.75;5.15;;;14.70;99.90;;;;;;6272359;22;20464;-82
2022/06/11 04:22:04;;;;;;;18.75;5.25;;;14.70;99.90;;;;;;6245338;23;20044;-83
2022/06/11 04:24:30;;;;;;;14.65;5.15;;;14.70;99.90;;;;;;6271511;22;20503;-83
2022/06/11 04:26:59;;;;;;;16.58;5.60;;;14.70;99.90;;;;;;6250774;22;20408;-83
2022/06/11 04:29:29;;;;;;;15.02;4.55;;;14.70;99.90;;;;;;6245143;23;20012;-84
2022/06/11 04:31:57;;;;;;;18.40;5.65;;;14.70;99.90;;;;;;6238276;22;20451;-83
2022/06/11 04:34:24;;;;;;;13.38;4.75;;;14.80;99.90;;;;;;6276207;22;20016;-82
2022/06/11 04:36:51;;;;;;;18.52;4.55;;;14.70;99.90;;;;;;6275841;22;20018;-82
2022/06/11 04:39:19;;;;;;;14.32;5.10;;;14.80;99.90;;;;;;6277282;22;20030;-82
2022/06/11 04:41:45;;;;;;;18.10;4.75;;;14.80;99.90;;;;;;6250105;22;20015;-84
2022/06/11 04:44:11;;;;;;;18.17;4.47;;;14.80;99.90;;;;;;6241570;22;20018;-80
2022/06/11 04:46:37;;;;;;;18.52;5.20;;;14.90;99.90;;;;;;6247326;22;20015;-86
2022/06/11 04:49:04;;;;;;;13.65;4.22;;;14.90;99.90;;;;;;6245619;23;20012;-81
2022/06/11 04:51:30;;;;;;;17.88;4.50;;;15.00;99.90;;;;;;6271292;22;20012;-84
2022/06/11 04:53:56;;;;;;;19.35;4.43;;;15.00;99.90;;;;;;6244416;23;20012;-81
2022/06/11 04:56:24;;;;;;;18.55;4.50;;;15.00;99.90;;;;;;6244302;23;20406;-82
2022/06/11 04:58:51;;;;;;;11.20;3.35;;;15.00;99.90;;;;;;6275912;22;20012;-82
2022/06/11 05:01:17;;;;;;;16.83;4.30;;;15.00;99.90;;;;;;6244600;23;20402;-80
2022/06/11 05:03:43;;;;;;;14.25;3.70;;;15.00;99.90;;;;;;6244924;23;20088;-81
2022/06/11 05:06:10;;;;;;;16.42;4.72;;;15.10;99.90;;;;;;6220696;23;20039;-79
2022/06/11 05:08:36;;;;;;;20.80;4.43;;;15.10;99.90;;;;;;6251993;23;20533;-79
2022/06/11 05:11:04;;;;;;;22.35;4.22;;;15.10;99.90;;;;;;6276344;22;20012;-79
2022/06/11 05:13:30;;;;;;;28.42;4.47;;;15.10;99.90;;;;;;6246199;23;20012;-86
2022/06/11 05:15:57;;;;;;;18.33;4.65;;;15.20;99.90;;;;;;6219407;23;20019;-81
2022/06/11 05:18:23;;;;;;;17.67;4.40;;;15.20;99.90;;;;;;6246605;23;20070;-81
2022/06/11 05:20:49;;;;;;;14.32;3.30;;;15.20;99.90;;;;;;6245041;23;20057;-81
2022/06/11 05:23:15;;;;;;;15.32;3.40;;;15.20;99.90;;;;;;6244559;23;20376;-80
2022/06/11 05:25:42;;;;;;;23.05;4.43;;;15.30;99.90;;;;;;6244628;23;20062;-81
2022/06/11 05:28:13;;;;;;;18.02;3.70;;;15.40;99.90;;;;;;6244995;23;20008;-81
2022/06/11 05:30:41;;;;;;;18.10;4.38;;;15.40;99.90;;;;;;6219459;23;20016;-82
2022/06/11 05:33:08;;;;;;;23.48;4.22;;;15.40;99.90;;;;;;6244666;23;20012;-80
2022/06/11 05:35:35;;;;;;;14.68;4.15;;;15.40;99.90;;;;;;6245079;23;20434;-82
2022/06/11 05:38:13;;;;;;;23.20;5.03;;;15.50;99.90;;;;;;6245092;23;20016;-82
2022/06/11 05:40:41;;;;;;;20.02;3.90;;;15.50;99.90;;;;;;6270500;22;20016;-81
2022/06/11 05:43:08;;;;;;;27.15;4.82;;;15.60;99.90;;;;;;6244781;23;20008;-82
2022/06/11 05:45:45;;;;;;;21.60;4.80;;;15.60;99.90;;;;;;6249828;22;20019;-82
2022/06/11 05:48:11;;;;;;;22.10;4.10;;;15.60;99.90;;;;;;6249463;23;20016;-82
2022/06/11 05:50:41;;;;;;;27.00;5.35;;;15.70;99.90;;;;;;6250335;22;20078;-81
2022/06/11 05:53:09;;;;;;;27.38;5.72;;;15.70;99.90;;;;;;6248479;23;20019;-83
2022/06/11 05:55:38;;;;;;;20.75;4.10;;;15.70;99.90;;;;;;6249946;22;20037;-82
2022/06/11 05:58:07;;;;;;;23.42;4.50;;;15.80;99.90;;;;;;6249912;22;20022;-81
2022/06/11 06:00:34;;;;;;;25.73;4.82;;;15.80;99.90;;;;;;6251847;22;20055;-80
2022/06/11 06:03:00;;;;;;;23.63;4.78;;;15.90;99.90;;;;;;6253153;22;20011;-81
2022/06/11 06:05:28;;;;;;;24.08;4.50;;;15.90;99.90;;;;;;6253197;22;20341;-84
2022/06/11 06:07:55;;;;;;;25.10;5.28;;;15.90;99.90;;;;;;6253528;22;20390;-81
2022/06/11 06:10:21;;;;;;;26.05;6.00;;;16.00;99.90;;;;;;6280503;22;20057;-82
2022/06/11 06:12:47;;;;;;;26.15;5.28;;;16.00;99.90;;;;;;6252399;22;20037;-83
2022/06/11 06:15:20;;;;;;;24.58;4.85;;;16.00;99.90;;;;;;6254898;22;20008;-83
2022/06/11 06:17:48;;;;;;;25.80;5.32;;;16.10;99.90;;;;;;6252996;22;20019;-82
2022/06/11 06:20:16;;;;;;;28.40;5.28;;;16.10;99.90;;;;;;6253225;22;20082;-81
2022/06/11 06:22:42;;;;;;;26.10;5.22;;;16.20;99.90;;;;;;6227879;22;20039;-81
2022/06/11 06:25:11;;;;;;;24.48;4.82;;;16.20;99.90;;;;;;6252817;22;20011;-80
2022/06/11 06:27:36;;;;;;;26.33;5.20;;;16.30;99.90;;;;;;6253182;22;20505;-82
2022/06/11 06:30:04;;;;;;;22.95;4.70;;;16.30;99.90;;;;;;6252860;22;20058;-83
2022/06/11 06:32:30;;;;;;;22.08;3.92;;;16.30;99.90;;;;;;6279800;22;20012;-82
2022/06/11 06:34:55;;;;;;;24.10;5.40;;;16.40;99.90;;;;;;6280503;22;20046;-83
2022/06/11 06:37:21;;;;;;;21.80;4.53;;;16.40;99.90;;;;;;6280601;22;20003;-83
2022/06/11 06:39:47;;;;;;;21.40;4.75;;;16.40;99.90;;;;;;6253303;22;20027;-84
2022/06/11 06:42:12;;;;;;;33.53;5.63;;;16.40;99.90;;;;;;6227856;22;20008;-80
2022/06/11 06:44:38;;;;;;;27.65;4.15;;;16.50;99.90;;;;;;6253222;22;20023;-83
2022/06/11 06:47:04;;;;;;;26.17;4.00;;;16.50;99.90;;;;;;6252979;22;20019;-81
2022/06/11 06:49:30;;;;;;;24.85;3.80;;;16.60;99.90;;;;;;6252838;22;20437;-82
2022/06/11 06:51:55;;;;;;;23.05;4.18;;;16.60;99.90;;;;;;6252859;22;20022;-83
2022/06/11 06:54:21;;;;;;;21.52;4.57;;;16.60;99.90;;;;;;6280013;22;20571;-80
2022/06/11 06:56:47;;;;;;;30.30;5.22;;;16.70;99.90;;;;;;6250548;22;20012;-84
2022/06/11 06:59:13;;;;;;;24.65;4.32;;;16.70;99.90;;;;;;6226241;22;20023;-82
2022/06/11 07:01:38;;;;;;;22.88;4.70;;;16.70;99.90;;;;;;6278881;22;20062;-83
2022/06/11 07:04:05;;;;;;;28.77;5.35;;;16.80;99.90;;;;;;6252176;22;20030;-84
2022/06/11 07:06:33;;;;;;;28.73;5.13;;;16.90;99.90;;;;;;6222178;22;20422;-82
2022/06/11 07:08:59;;;;;;;23.65;4.45;;;16.90;99.90;;;;;;6251619;22;20430;-83
2022/06/11 07:11:25;;;;;;;22.73;4.60;;;17.00;99.90;;;;;;6278740;22;20022;-75
2022/06/11 07:13:50;;;;;;;21.77;5.03;;;17.00;99.90;;;;;;6252271;22;20015;-80
2022/06/11 07:16:22;;;;;;;23.27;4.38;;;17.00;99.90;;;;;;6226683;22;20061;-81
2022/06/11 07:18:52;;;;;;;23.85;4.93;;;17.00;99.90;;;;;;6251148;22;20022;-81
2022/06/11 07:21:21;;;;;;;22.27;5.28;;;17.00;99.90;;;;;;6250583;22;20015;-81
2022/06/11 07:23:52;;;;;;;21.35;4.38;;;17.10;99.90;;;;;;6278918;22;20014;-84
2022/06/11 07:26:23;;;;;;;18.75;3.90;;;17.00;99.90;;;;;;6225771;22;20061;-84
2022/06/11 07:29:04;;;;;;;22.50;4.22;;;17.10;99.90;;;;;;6251743;22;20065;-81
2022/06/11 07:31:31;;;;;;;21.88;4.07;;;17.20;99.90;;;;;;6251430;22;20497;-82
2022/06/11 07:33:57;;;;;;;22.65;4.15;;;17.20;99.90;;;;;;6251492;22;20016;-81
2022/06/11 07:36:23;;;;;;;24.63;4.13;;;17.20;99.90;;;;;;6225604;22;20011;-84
2022/06/11 07:38:49;;;;;;;25.25;4.95;;;17.20;99.90;;;;;;6251140;22;20050;-82
2022/06/11 07:41:14;;;;;;;23.10;4.07;;;17.30;99.90;;;;;;6251059;22;20019;-84
2022/06/11 07:43:40;;;;;;;19.45;4.43;;;17.30;99.90;;;;;;6251104;22;20441;-84
2022/06/11 07:46:07;;;;;;;21.00;4.25;;;17.40;99.90;;;;;;6251302;22;20050;-86
2022/06/11 07:48:32;;;;;;;23.35;3.78;;;17.50;99.90;;;;;;6225627;22;20061;-82
2022/06/11 07:50:58;;;;;;;27.10;4.82;;;17.60;99.90;;;;;;6251308;22;20012;-81
2022/06/11 07:53:24;;;;;;;21.75;4.65;;;17.60;99.90;;;;;;6251358;22;20015;-82
2022/06/11 07:55:52;;;;;;;21.48;4.97;;;17.60;99.90;;;;;;6225887;22;20012;-80
2022/06/11 07:58:21;;;;;;;14.50;3.30;;;17.60;99.90;;;;;;6249681;22;20023;-82
2022/06/11 08:00:50;;;;;;;24.65;5.93;;;17.80;99.90;;;;;;6224848;22;20089;-80
2022/06/11 08:03:18;;;;;;;20.45;4.32;;;17.80;99.90;;;;;;6226004;22;20007;-80
2022/06/11 08:05:44;;;;;;;27.02;4.18;;;17.80;99.90;;;;;;6250431;22;20012;-81
2022/06/11 08:08:11;;;;;;;23.48;4.07;;;17.70;99.90;;;;;;6250517;22;20051;-81
2022/06/11 08:10:38;;;;;;;23.88;4.40;;;17.70;99.90;;;;;;6250484;22;20012;-81
2022/06/11 08:13:05;;;;;;;22.50;4.28;;;17.70;99.90;;;;;;6250554;22;20103;-82
2022/06/11 08:15:31;;;;;;;22.10;4.13;;;17.80;99.90;;;;;;6250209;22;20434;-82
2022/06/11 08:17:58;;;;;;;22.23;4.70;;;17.90;99.90;;;;;;6225094;22;20322;-83
2022/06/11 08:20:27;;;;;;;22.73;3.88;;;18.00;99.90;;;;;;6250678;22;20030;-82
2022/06/11 08:22:53;;;;;;;16.38;4.03;;;18.00;99.90;;;;;;6250837;22;20012;-79
2022/06/11 08:25:20;;;;;;;20.77;3.90;;;18.00;99.90;;;;;;6250511;22;20016;-83
2022/06/11 08:27:46;;;;;;;18.67;3.25;;;18.10;99.90;;;;;;6249827;22;20023;-82
2022/06/11 08:30:14;;;;;;;17.52;3.80;;;18.10;99.90;;;;;;6277831;22;20012;-82
2022/06/11 08:32:40;;;;;;;17.48;3.47;;;18.10;99.90;;;;;;6250191;22;20023;-81
2022/06/11 08:35:06;;;;;;;20.92;3.90;;;18.00;99.90;;;;;;6249477;22;20007;-79
2022/06/11 08:37:32;;;;;;;21.05;3.30;;;18.10;99.90;;;;;;6249700;22;20008;-82
2022/06/11 08:39:58;;;;;;;20.02;3.67;;;18.10;99.90;;;;;;6249770;22;20012;-79
2022/06/11 08:42:36;;;;;;;16.75;3.33;;;18.20;99.90;;;;;;6250362;22;20015;-83
2022/06/11 08:45:23;;;;;;;14.73;2.60;;;18.30;99.90;;;;;;6250112;22;20445;-81
2022/06/11 08:47:57;;;;;;;19.75;3.38;;;18.30;99.90;;;;;;6249936;22;20091;-82
2022/06/11 08:50:34;;;;;;;14.98;3.38;;;18.40;99.90;;;;;;6249545;22;20468;-83
2022/06/11 08:53:00;;;;;;;14.75;3.40;;;18.40;99.90;;;;;;6249636;22;20023;-81
2022/06/11 08:55:34;;;;;;;19.55;3.88;;;18.50;99.90;;;;;;6277122;22;20338;-83
2022/06/11 08:58:13;;;;;;;16.08;3.25;;;18.60;99.90;;;;;;6250559;22;20011;-82
2022/06/11 09:00:42;;;;;;;16.85;3.05;;;18.60;99.90;;;;;;6250628;22;20027;-82
2022/06/11 09:03:43;;;;;;;13.68;2.88;;;18.70;99.90;;;;;;6224654;22;20015;-80
2022/06/11 09:06:10;;;;;;;17.77;3.10;;;18.80;99.90;;;;;;6250705;22;20015;-83
2022/06/11 09:08:58;;;;;;;18.00;3.15;;;18.80;99.90;;;;;;6225013;22;20442;-81
2022/06/11 09:11:39;;;;;;;16.95;2.47;;;18.90;99.90;;;;;;6225725;22;20022;-79
2022/06/11 09:14:26;;;;;;;12.15;3.00;;;19.00;99.90;;;;;;6250498;22;20394;-82
2022/06/11 09:16:55;;;;;;;15.30;2.83;;;19.00;99.90;;;;;;6224914;22;20033;-84
2022/06/11 09:19:34;;;;;;;16.23;3.45;;;19.20;99.90;;;;;;6250302;22;20011;-82
2022/06/11 09:22:22;;;;;;;13.15;3.53;;;19.20;99.90;;;;;;6277205;22;20015;-80
2022/06/11 09:25:10;;;;;;;16.15;3.20;;;19.40;99.90;;;;;;6224564;22;20043;-81
2022/06/11 09:27:41;;;;;;;19.05;3.95;;;19.40;99.90;;;;;;6250015;22;20341;-81
2022/06/11 09:30:16;;;;;;;14.85;2.83;;;19.30;99.90;;;;;;6277616;22;20004;-82
2022/06/11 09:32:48;;;;;;;11.02;2.53;;;19.30;99.90;;;;;;6249773;22;20445;-80
2022/06/11 09:35:30;;;;;;;16.02;3.45;;;19.50;99.90;;;;;;6277314;22;20334;-82
2022/06/11 09:38:25;;;;;;;15.02;2.92;;;19.60;99.90;;;;;;6250172;22;20035;-83
2022/06/11 09:41:12;;;;;;;12.80;2.70;;;19.70;99.90;;;;;;6250784;22;20087;-81
2022/06/11 09:44:05;;;;;;;18.10;3.50;;;19.80;99.90;;;;;;6250512;22;20098;-81
2022/06/11 09:46:31;;;;;;;16.98;3.47;;;19.80;99.90;;;;;;6250673;22;20020;-82
2022/06/11 09:49:02;;;;;;;13.77;2.60;;;19.80;99.90;;;;;;6250331;22;20068;-81
2022/06/11 09:51:34;;;;;;;14.52;2.88;;;19.90;99.90;;;;;;6277453;22;20018;-81
2022/06/11 09:53:59;;;;;;;12.88;2.60;;;20.00;99.90;;;;;;6249751;22;20022;-81
2022/06/11 09:57:03;;;;;;;15.82;3.28;;;20.10;99.90;;;;;;6250129;22;20008;-82
2022/06/11 09:59:40;;;;;;;12.38;3.22;;;20.00;99.90;;;;;;6250027;22;20016;-82
2022/06/11 10:02:06;;;;;;;15.90;3.33;;;20.00;99.90;;;;;;6250288;22;20346;-80
2022/06/11 10:04:44;;;;;;;15.77;2.88;;;20.10;99.90;;;;;;6250423;22;20046;-79
2022/06/11 10:07:15;;;;;;;16.80;2.78;;;20.20;99.90;;;;;;6250052;22;20094;-81
2022/06/11 10:09:47;;;;;;;17.30;3.35;;;20.30;99.90;;;;;;6278101;22;20038;-81
2022/06/11 10:12:25;;;;;;;13.25;2.85;;;20.20;99.90;;;;;;6250248;22;20016;-81
2022/06/11 10:14:55;;;;;;;17.23;2.83;;;20.10;99.90;;;;;;6224652;22;20011;-82
2022/06/11 10:17:29;;;;;;;12.10;3.00;;;20.20;99.90;;;;;;6249873;22;20007;-82
2022/06/11 10:20:04;;;;;;;19.05;2.83;;;20.20;99.90;;;;;;6250019;22;20015;-82
2022/06/11 10:23:04;;;;;;;14.63;3.28;;;20.30;99.90;;;;;;6276580;22;20453;-83
2022/06/11 10:25:36;;;;;;;14.77;3.05;;;20.40;99.90;;;;;;6187742;22;20050;-80
2022/06/11 10:28:25;;;;;;;11.77;2.45;;;20.40;99.90;;;;;;6249406;22;20050;-82
2022/06/11 10:30:52;;;;;;;16.02;3.25;;;20.50;99.90;;;;;;6250812;22;20012;-82
2022/06/11 10:33:41;;;;;;;15.75;3.15;;;20.60;99.90;;;;;;6251769;22;20027;-83
2022/06/11 10:36:13;;;;;;;15.30;2.80;;;20.80;99.90;;;;;;6226772;22;20130;-82
2022/06/11 10:38:44;;;;;;;16.27;3.13;;;20.90;99.90;;;;;;6252173;22;20326;-83
2022/06/11 10:41:19;;;;;;;13.77;2.83;;;21.00;99.90;;;;;;6251188;22;20070;-82
2022/06/11 10:43:51;;;;;;;17.48;3.58;;;20.90;99.90;;;;;;6279175;22;20016;-84
2022/06/11 10:46:18;;;;;;;14.05;2.83;;;21.00;99.90;;;;;;6253889;22;20015;-87
2022/06/11 10:48:44;;;;;;;16.33;3.25;;;21.20;99.90;;;;;;6227586;22;20026;-81
2022/06/11 10:51:19;;;;;;;14.32;3.03;;;21.20;99.90;;;;;;6252651;22;20015;-86
2022/06/11 10:54:10;;;;;;;12.70;2.70;;;21.10;99.90;;;;;;6252908;22;20434;-84
2022/06/11 10:56:47;;;;;;;10.73;2.70;;;21.00;99.90;;;;;;6253232;22;20015;-83
2022/06/11 10:59:36;;;;;;;16.80;2.90;;;21.00;99.90;;;;;;6252392;22;20020;-82
2022/06/11 11:02:10;;;;;;;16.67;3.20;;;21.00;99.90;;;;;;6251549;22;20438;-83
2022/06/11 11:04:42;;;;;;;13.55;2.95;;;21.20;99.90;;;;;;6252598;22;20018;-81
2022/06/11 11:07:18;;;;;;;15.18;2.95;;;21.20;99.90;;;;;;6252533;22;20019;-82
2022/06/11 11:09:44;;;;;;;12.18;2.75;;;21.20;99.90;;;;;;6252640;22;20030;-81
2022/06/11 11:12:17;;;;;;;14.77;2.72;;;21.00;99.90;;;;;;6279966;22;20018;-83
2022/06/11 11:14:46;;;;;;;15.98;3.53;;;20.90;99.90;;;;;;6280034;22;20334;-82
2022/06/11 11:17:17;;;;;;;13.40;2.90;;;20.90;99.90;;;;;;6280580;22;20015;-81
2022/06/11 11:20:29;;;;;;;10.88;2.72;;;21.10;99.90;;;;;;6252517;22;20020;-83
2022/06/11 11:22:34;;;;;;;13.60;2.60;;;21.10;99.90;;;;;;6254196;22;20024;-83
2022/06/11 11:25:02;;;;;;;10.95;2.72;;;21.20;99.90;;;;;;6271435;22;20035;-83
2022/06/11 11:27:33;;;;;;;10.07;2.33;;;21.10;99.90;;;;;;6282812;22;20110;-83
2022/06/11 11:30:14;;;;;;;15.18;3.25;;;21.30;99.90;;;;;;6258416;22;20015;-82
2022/06/11 11:32:42;;;;;;;10.75;2.63;;;21.30;99.90;;;;;;6256168;22;20016;-81
2022/06/11 11:35:36;;;;;;;17.13;3.88;;;20.90;99.90;;;;;;6261102;22;20069;-79
2022/06/11 11:38:11;;;;;;;19.35;3.03;;;21.00;99.90;;;;;;6254107;23;20351;-82
2022/06/11 11:40:54;;;;;;;10.27;2.30;;;21.10;99.90;;;;;;6252478;22;20417;-81
2022/06/11 11:43:22;;;;;;;14.48;2.95;;;21.10;99.90;;;;;;6252448;22;20012;-82
2022/06/11 11:45:56;;;;;;;14.80;2.70;;;21.10;99.90;;;;;;6252922;22;20346;-82
2022/06/11 11:48:31;;;;;;;11.85;2.88;;;21.10;99.90;;;;;;6252015;22;20023;-83
2022/06/11 11:51:05;;;;;;;12.02;3.08;;;21.30;99.90;;;;;;6279997;22;20016;-81
2022/06/11 11:53:53;;;;;;;12.30;3.33;;;21.00;99.90;;;;;;6227241;22;20350;-83
2022/06/11 11:56:39;;;;;;;14.50;2.95;;;21.20;99.90;;;;;;6252152;22;20092;-83
2022/06/11 11:59:45;;;;;;;13.05;3.05;;;21.30;99.90;;;;;;6252667;22;20125;-81
2022/06/11 12:02:21;;;;;;;17.10;3.50;;;21.30;99.90;;;;;;6225912;22;20101;-81
2022/06/11 12:04:49;;;;;;;9.45;2.85;;;21.30;99.90;;;;;;6251975;22;20120;-82
2022/06/11 12:07:18;;;;;;;15.57;3.35;;;21.50;99.90;;;;;;6252260;22;20093;-81
2022/06/11 12:09:51;;;;;;;14.80;2.45;;;21.70;99.90;;;;;;6252420;22;20086;-82
2022/06/11 12:12:27;;;;;;;11.30;2.70;;;21.60;99.90;;;;;;6279173;22;20015;-82
2022/06/11 12:15:01;;;;;;;10.98;2.55;;;21.50;99.90;;;;;;6279425;22;20015;-80
2022/06/11 12:17:40;;;;;;;15.95;3.20;;;21.60;99.90;;;;;;6246330;23;20344;-81
2022/06/11 12:20:33;;;;;;;13.70;3.10;;;21.70;99.90;;;;;;6269645;22;20156;-82
2022/06/11 12:23:22;;;;;;;12.63;2.60;;;21.70;99.90;;;;;;6252042;22;20011;-84
2022/06/11 12:25:55;;;;;;;17.38;3.08;;;21.50;99.90;;;;;;6252701;22;20008;-83
2022/06/11 12:28:29;;;;;;;12.55;2.63;;;21.10;99.90;;;;;;6253011;22;20330;-84
2022/06/11 12:30:56;;;;;;;11.93;2.88;;;21.10;99.90;;;;;;6251758;22;20023;-84
2022/06/11 12:33:24;;;;;;;13.60;2.60;;;21.30;99.90;;;;;;6279474;22;20011;-83
2022/06/11 12:35:58;;;;;;;14.20;3.00;;;21.30;99.90;;;;;;6251126;22;20468;-84
2022/06/11 12:38:45;;;;;;;12.18;2.63;;;21.50;99.90;;;;;;6251609;22;20030;-83
2022/06/11 12:41:25;;;;;;;16.63;3.13;;;21.60;99.90;;;;;;6251179;22;20007;-82
2022/06/11 12:44:28;;;;;;;13.23;3.10;;;21.30;99.90;;;;;;6251321;22;20026;-82
2022/06/11 12:47:01;;;;;;;13.93;3.08;;;21.30;99.90;;;;;;6226046;22;20464;-82
2022/06/11 12:49:44;;;;;;;18.05;4.28;;;21.50;99.90;;;;;;6251174;22;20013;-85
2022/06/11 12:52:18;;;;;;;16.73;3.40;;;21.50;99.90;;;;;;6225696;22;20008;-84
2022/06/11 12:55:17;;;;;;;14.45;2.67;;;21.60;99.90;;;;;;6225768;22;20061;-83
2022/06/11 12:58:07;;;;;;;13.05;2.50;;;21.70;99.90;;;;;;6251015;22;20066;-82
2022/06/11 13:00:33;;;;;;;14.93;3.05;;;21.50;99.90;;;;;;6251596;22;20083;-83
2022/06/11 13:03:04;;;;;;;13.63;2.92;;;21.60;99.90;;;;;;6251904;22;20015;-83
2022/06/11 13:05:39;;;;;;;17.27;3.38;;;21.60;99.90;;;;;;6251698;22;20069;-82
2022/06/11 13:08:37;;;;;;;13.32;2.90;;;21.50;99.90;;;;;;6246340;23;20019;-83
2022/06/11 13:11:22;;;;;;;16.08;2.88;;;21.40;99.90;;;;;;6193076;22;20091;-82
2022/06/11 13:14:19;;;;;;;17.38;3.47;;;21.40;99.90;;;;;;6241942;22;20434;-82
2022/06/11 13:16:49;;;;;;;14.05;2.88;;;21.20;99.90;;;;;;6278218;22;20095;-82
2022/06/11 13:19:47;;;;;;;11.77;2.60;;;21.20;99.90;;;;;;6251704;22;20019;-82
2022/06/11 13:22:25;;;;;;;15.07;2.97;;;21.40;99.90;;;;;;6231670;22;20046;-83
2022/06/11 13:25:03;;;;;;;12.90;2.88;;;21.50;99.90;;;;;;6251879;22;20070;-82
2022/06/11 13:27:47;;;;;;;13.63;2.65;;;21.90;99.90;;;;;;6226523;22;20065;-83
2022/06/11 13:30:53;;;;;;;13.38;3.17;;;21.90;99.90;;;;;;6252248;22;20063;-84
2022/06/11 13:33:28;;;;;;;15.27;3.35;;;22.10;99.90;;;;;;6155900;23;20445;-82
2022/06/11 13:36:08;;;;;;;14.32;2.42;;;21.90;99.90;;;;;;6233205;23;20422;-84
2022/06/11 13:38:57;;;;;;;12.30;2.70;;;22.10;99.90;;;;;;6225204;22;20058;-84
2022/06/11 13:41:32;;;;;;;14.40;2.80;;;22.30;99.90;;;;;;6245384;23;20039;-83
2022/06/11 13:44:11;;;;;;;13.15;2.55;;;22.30;99.90;;;;;;6234333;23;20342;-83
2022/06/11 13:47:03;;;;;;;18.65;3.35;;;22.10;99.90;;;;;;6222045;22;20023;-82
2022/06/11 13:49:52;;;;;;;15.57;3.03;;;22.30;99.90;;;;;;6250911;22;20012;-83
2022/06/11 13:55:10;;;;;;;14.05;2.67;;;22.10;99.90;;;;;;6225709;22;20510;-85
2022/06/11 13:55:32;;;;;;;14.27;3.47;;;22.00;99.90;;;;;;6251365;22;20034;-84
2022/06/11 13:58:25;;;;;;;18.27;3.28;;;21.80;99.90;;;;;;6277951;22;20445;-82
2022/06/11 14:01:25;;;;;;;17.17;2.88;;;21.90;99.90;;;;;;6250582;22;20012;-82
2022/06/11 14:04:11;;;;;;;12.60;3.40;;;22.00;99.90;;;;;;6251363;22;20044;-81
2022/06/11 14:06:39;;;;;;;14.70;3.75;;;22.20;99.90;;;;;;6253012;22;20044;-84
2022/06/11 14:12:06;;;;;;;12.20;2.83;;;22.40;99.90;;;;;;6278677;22;20024;-83
2022/06/11 14:14:41;;;;;;;9.93;2.83;;;22.40;99.90;;;;;;6253733;22;20016;-83
2022/06/11 14:17:38;;;;;;;16.27;3.15;;;22.30;99.90;;;;;;6253713;22;20047;-83
2022/06/11 14:20:24;;;;;;;14.10;3.05;;;22.40;99.90;;;;;;6228655;22;20012;-85
2022/06/11 14:22:59;;;;;;;12.13;2.85;;;22.40;99.90;;;;;;6253864;22;20030;-82
2022/06/11 14:25:40;;;;;;;12.60;3.03;;;22.50;99.90;;;;;;6280817;22;20085;-83
2022/06/11 14:28:14;;;;;;;13.43;2.80;;;22.60;99.90;;;;;;6228810;22;20023;-83
2022/06/11 14:30:49;;;;;;;14.10;2.60;;;22.50;99.90;;;;;;6253428;22;20030;-85
2022/06/11 14:33:18;;;;;;;12.18;3.30;;;22.40;99.90;;;;;;6228415;22;20343;-84
2022/06/11 14:35:50;;;;;;;16.33;3.13;;;22.70;99.90;;;;;;6253312;22;20015;-83
2022/06/11 14:38:24;;;;;;;13.50;2.92;;;22.30;99.90;;;;;;6280103;22;20094;-83
2022/06/11 14:41:14;;;;;;;12.85;3.42;;;22.20;99.90;;;;;;6228000;22;20007;-84
2022/06/11 14:46:46;;;;;;;15.35;2.60;;;22.50;99.90;;;;;;6278941;22;20026;-83
2022/06/11 14:49:34;;;;;;;16.00;3.78;;;22.30;99.90;;;;;;6253467;22;20012;-85
2022/06/11 14:52:05;;;;;;;16.75;3.30;;;22.50;99.90;;;;;;6253414;22;20042;-85
2022/06/11 14:54:46;;;;;;;19.63;3.08;;;22.50;99.90;;;;;;6252766;22;20027;-86
2022/06/11 14:57:36;;;;;;;18.73;2.95;;;22.70;99.90;;;;;;6226767;22;20388;-82
2022/06/11 15:00:42;;;;;;;13.90;2.85;;;22.70;99.90;;;;;;6228261;22;20091;-85
2022/06/11 15:03:43;;;;;;;17.88;4.68;;;22.40;99.90;;;;;;6254168;22;20031;-85
2022/06/11 15:06:22;;;;;;;18.08;3.25;;;22.40;99.90;;;;;;6227248;22;20087;-83
2022/06/11 15:08:59;;;;;;;26.08;10.65;;;22.60;99.90;;;;;;6229005;22;20016;-85
2022/06/11 15:11:55;;;;;;;16.58;3.50;;;22.60;99.90;;;;;;6251905;22;20012;-83
2022/06/11 15:14:50;;;;;;;13.43;3.20;;;22.60;99.90;;;;;;6228173;22;20455;-84
2022/06/11 15:17:21;;;;;;;15.85;2.97;;;22.30;99.90;;;;;;6279983;22;20012;-85
2022/06/11 15:19:54;;;;;;;15.40;4.00;;;22.40;99.90;;;;;;6253221;22;20425;-84
2022/06/11 15:22:25;;;;;;;12.85;3.03;;;22.60;99.90;;;;;;6279961;22;20430;-84
2022/06/11 15:25:00;;;;;;;15.77;3.20;;;22.50;99.90;;;;;;6253433;22;20015;-83
2022/06/11 15:27:30;;;;;;;14.00;3.30;;;22.70;99.90;;;;;;6252630;22;20135;-83
2022/06/11 15:30:29;;;;;;;18.77;3.38;;;22.60;99.90;;;;;;6227397;22;20066;-83
2022/06/11 15:33:19;;;;;;;14.15;3.03;;;22.60;99.90;;;;;;6226319;22;20016;-83
2022/06/11 15:35:57;;;;;;;16.38;3.60;;;22.50;99.90;;;;;;6252462;22;20098;-85
2022/06/11 15:38:34;;;;;;;11.23;2.75;;;22.40;99.90;;;;;;6251938;22;20008;-84
2022/06/11 15:41:04;;;;;;;12.50;3.10;;;22.40;99.90;;;;;;6251974;22;20012;-83
2022/06/11 15:43:52;;;;;;;16.48;3.00;;;22.40;99.90;;;;;;6251930;22;20011;-83
2022/06/11 15:46:33;;;;;;;13.48;3.15;;;22.50;99.90;;;;;;6252302;22;20456;-83
2022/06/11 15:48:59;;;;;;;15.63;3.35;;;22.40;99.90;;;;;;6279029;22;20029;-83
2022/06/11 15:51:27;;;;;;;21.95;4.63;;;22.40;99.90;;;;;;6226955;22;20073;-82
2022/06/11 15:57:31;;;;;;;18.10;3.47;;;22.30;99.90;;;;;;6190722;23;20024;-85
2022/06/11 16:00:16;;;;;;;15.90;3.63;;;22.20;99.90;;;;;;6190621;23;20013;-81
2022/06/11 16:02:42;;;;;;;14.13;3.85;;;21.90;99.90;;;;;;6217345;22;20070;-85
2022/06/11 16:05:22;;;;;;;13.10;3.00;;;21.70;99.90;;;;;;6246420;23;20012;-84
2022/06/11 16:07:50;;;;;;;17.27;3.25;;;21.60;99.90;;;;;;6251102;22;20051;-84
2022/06/11 16:10:19;;;;;;;16.33;3.65;;;21.60;99.90;;;;;;6251666;22;20449;-84
2022/06/11 16:12:47;;;;;;;21.20;4.00;;;21.80;99.90;;;;;;6279214;22;20008;-84
2022/06/11 16:15:20;;;;;;;19.00;3.55;;;22.00;99.90;;;;;;6252618;22;20345;-85
2022/06/11 16:17:50;;;;;;;19.95;3.65;;;21.90;99.90;;;;;;6279136;22;20083;-83
2022/06/11 16:20:19;;;;;;;17.33;3.80;;;21.60;99.90;;;;;;6251771;22;20463;-82
2022/06/11 16:22:49;;;;;;;16.75;3.10;;;21.80;99.90;;;;;;6251845;22;20047;-83
2022/06/11 16:25:20;;;;;;;16.35;3.20;;;21.70;99.90;;;;;;6226479;22;20012;-82
2022/06/11 16:27:48;;;;;;;14.98;3.38;;;21.70;99.90;;;;;;6251512;22;20496;-83
2022/06/11 16:30:16;;;;;;;15.63;3.08;;;21.80;99.90;;;;;;6251542;22;20020;-84
2022/06/11 16:32:42;;;;;;;12.80;2.92;;;21.90;99.90;;;;;;6251589;22;20015;-85
2022/06/11 16:35:36;;;;;;;13.18;2.90;;;21.80;99.90;;;;;;6227406;22;20345;-83
2022/06/11 16:38:31;;;;;;;12.90;2.60;;;21.60;99.90;;;;;;6279117;22;20426;-84
2022/06/11 16:41:04;;;;;;;16.40;3.43;;;21.50;99.90;;;;;;6228060;22;20325;-82
2022/06/11 16:43:33;;;;;;;14.85;3.28;;;21.60;99.90;;;;;;6252266;22;20008;-84
2022/06/11 16:46:01;;;;;;;11.45;3.20;;;21.50;99.90;;;;;;6226426;22;20046;-84
2022/06/11 16:48:35;;;;;;;14.80;3.35;;;21.40;99.90;;;;;;6252185;22;20014;-83
2022/06/11 16:56:51;;;;;;;13.20;2.60;;;21.40;99.90;;;;;;6214667;22;20193;-84
2022/06/11 16:59:39;;;;;;;12.93;2.60;;;21.30;99.90;;;;;;6225979;22;20011;-83
2022/06/11 17:05:02;;;;;;;15.15;2.20;;;21.40;99.90;;;;;;6267940;22;20069;-84
2022/06/11 17:07:48;;;;;;;15.02;3.03;;;21.20;99.90;;;;;;6251218;22;20063;-83
2022/06/11 17:10:34;;;;;;;10.23;2.10;;;21.10;99.90;;;;;;6225867;22;20046;-84
2022/06/11 17:13:05;;;;;;;11.68;2.72;;;21.00;99.90;;;;;;6226516;22;20278;-84
2022/06/11 17:15:38;;;;;;;11.75;2.15;;;20.90;99.90;;;;;;6251161;22;20381;-84
2022/06/11 17:18:24;;;;;;;14.88;2.58;;;20.80;99.90;;;;;;6225740;22;20071;-84
2022/06/11 17:21:36;;;;;;;11.23;2.33;;;20.70;99.90;;;;;;6251535;22;20012;-84
2022/06/11 17:24:25;;;;;;;13.73;2.63;;;20.80;99.90;;;;;;6248253;22;20018;-83
2022/06/11 17:27:16;;;;;;;15.45;3.10;;;20.80;99.90;;;;;;6278342;22;20050;-84
2022/06/11 17:29:43;;;;;;;14.90;3.72;;;20.70;99.90;;;;;;6249659;22;20012;-83
2022/06/11 17:32:20;;;;;;;13.75;3.10;;;20.90;99.90;;;;;;6277869;22;20018;-84